Time;durP1;ratioP1;P1;durP2;ratioP2;P2;SDS_P1;SDS_P2;PMS_P1;PMS_P2;Temp;Humidity;BMP_temperature;BMP_pressure;BME280_temperature;BME280_humidity;BME280_pressure;Samples;Min_cycle;Max_cycle;Signal;HPM_P1;HPM_P2
2022/06/25 00:01:41;;;;;;;12.80;12.27;;;16.60;99.90;;;;;;4952004;29;20457;-72
2022/06/25 00:05:27;;;;;;;12.77;12.17;;;16.60;99.90;;;;;;4952102;29;21227;-72
2022/06/25 00:06:55;;;;;;;12.83;12.23;;;16.60;99.90;;;;;;4951631;29;20484;-72
2022/06/25 00:09:21;;;;;;;13.23;12.63;;;16.60;99.90;;;;;;4951992;29;20951;-72
2022/06/25 00:14:37;;;;;;;12.60;12.00;;;16.70;99.90;;;;;;4927197;29;20444;-72
2022/06/25 00:17:05;;;;;;;12.90;12.27;;;16.60;99.90;;;;;;4951780;29;20842;-72
2022/06/25 00:19:31;;;;;;;14.10;13.17;;;16.60;99.90;;;;;;4951602;29;20810;-71
2022/06/25 00:21:58;;;;;;;12.90;12.27;;;16.60;99.90;;;;;;4951795;29;20451;-72
2022/06/25 00:24:25;;;;;;;14.00;13.20;;;16.70;99.90;;;;;;4952046;29;20452;-73
2022/06/25 00:26:53;;;;;;;13.90;13.20;;;16.80;99.90;;;;;;4951654;28;20484;-73
2022/06/25 00:29:20;;;;;;;13.30;12.50;;;16.70;99.90;;;;;;4971727;28;20525;-74
2022/06/25 00:31:46;;;;;;;13.07;12.43;;;16.70;99.90;;;;;;4990413;28;20681;-73
2022/06/25 00:34:13;;;;;;;13.43;12.73;;;16.70;99.90;;;;;;4992466;28;20825;-73
2022/06/25 00:36:40;;;;;;;13.47;12.90;;;16.70;99.90;;;;;;4994198;28;20715;-73
2022/06/25 00:39:07;;;;;;;13.47;12.97;;;16.70;99.90;;;;;;4994644;28;20465;-73
2022/06/25 00:41:33;;;;;;;13.87;13.10;;;16.60;99.90;;;;;;4994015;28;20949;-73
2022/06/25 00:44:07;;;;;;;13.60;12.80;;;16.60;99.90;;;;;;4993842;28;20790;-72
2022/06/25 00:46:34;;;;;;;12.87;12.37;;;16.50;99.90;;;;;;4994018;28;20482;-72
2022/06/25 00:49:00;;;;;;;14.20;13.07;;;16.50;99.90;;;;;;4993904;28;20847;-72
2022/06/25 00:51:32;;;;;;;13.17;12.57;;;16.50;99.90;;;;;;4994002;28;20457;-73
2022/06/25 00:54:03;;;;;;;13.37;12.73;;;16.40;99.90;;;;;;4993883;28;20455;-72
2022/06/25 00:56:33;;;;;;;14.00;13.40;;;16.40;99.90;;;;;;4993812;28;20925;-72
2022/06/25 00:59:05;;;;;;;12.97;12.20;;;16.30;99.90;;;;;;4993769;28;20651;-72
2022/06/25 01:01:34;;;;;;;13.10;12.40;;;16.30;99.90;;;;;;4993712;28;20462;-72
2022/06/25 01:04:01;;;;;;;13.50;12.90;;;16.30;99.90;;;;;;4994044;28;20780;-72
2022/06/25 01:06:28;;;;;;;13.80;13.20;;;16.30;99.90;;;;;;4993360;28;20495;-72
2022/06/25 01:08:55;;;;;;;12.43;11.93;;;16.20;99.90;;;;;;4993458;28;20458;-71
2022/06/25 01:11:22;;;;;;;14.30;13.27;;;16.20;99.90;;;;;;4993829;28;20447;-72
2022/06/25 01:13:48;;;;;;;13.37;12.53;;;16.10;99.90;;;;;;4993332;28;20462;-72
2022/06/25 01:16:16;;;;;;;13.20;12.63;;;16.20;99.90;;;;;;4993623;28;20447;-72
2022/06/25 01:18:43;;;;;;;12.67;12.10;;;16.20;99.90;;;;;;4993522;28;20470;-73
2022/06/25 01:21:10;;;;;;;13.87;12.90;;;16.10;99.90;;;;;;4993369;28;20451;-73
2022/06/25 01:23:38;;;;;;;11.17;10.77;;;16.20;99.90;;;;;;4993546;28;20478;-73
2022/06/25 01:26:05;;;;;;;13.20;12.60;;;16.20;99.90;;;;;;4992981;28;20490;-73
2022/06/25 01:28:32;;;;;;;12.90;12.30;;;16.20;99.90;;;;;;4992847;28;20513;-73
2022/06/25 01:30:58;;;;;;;13.10;12.60;;;16.20;99.90;;;;;;4993307;28;20486;-73
2022/06/25 01:33:25;;;;;;;13.30;12.60;;;16.20;99.90;;;;;;4993050;28;20457;-73
2022/06/25 01:35:52;;;;;;;12.60;12.10;;;16.20;99.90;;;;;;4993469;28;20462;-74
2022/06/25 01:38:18;;;;;;;13.63;12.83;;;16.10;99.90;;;;;;4992953;28;20933;-75
2022/06/25 01:40:47;;;;;;;12.73;12.20;;;16.20;99.90;;;;;;4993041;28;20831;-72
2022/06/25 01:43:13;;;;;;;14.10;12.80;;;16.10;99.90;;;;;;4992900;28;20612;-73
2022/06/25 01:45:41;;;;;;;12.97;12.30;;;16.10;99.90;;;;;;4992512;28;20470;-73
2022/06/25 01:48:08;;;;;;;12.80;12.20;;;16.10;99.90;;;;;;4993000;28;21012;-73
2022/06/25 01:50:37;;;;;;;12.70;12.10;;;16.10;99.90;;;;;;4992686;28;20450;-73
2022/06/25 01:53:04;;;;;;;12.10;11.70;;;16.10;99.90;;;;;;4992471;28;21134;-73
2022/06/25 01:55:30;;;;;;;13.57;12.97;;;16.10;99.90;;;;;;4992884;28;20461;-73
2022/06/25 01:57:59;;;;;;;13.17;12.57;;;16.10;99.90;;;;;;4992515;28;20462;-73
2022/06/25 02:00:28;;;;;;;14.60;13.70;;;16.00;99.90;;;;;;4992884;28;20494;-71
2022/06/25 02:02:55;;;;;;;13.57;12.97;;;16.00;99.90;;;;;;4992679;28;20964;-72
2022/06/25 02:08:05;;;;;;;12.63;12.13;;;16.00;99.90;;;;;;4991270;28;20497;-72
2022/06/25 02:10:32;;;;;;;13.23;12.73;;;16.00;99.90;;;;;;4992492;28;20463;-73
2022/06/25 02:13:00;;;;;;;12.73;12.10;;;15.90;99.90;;;;;;4992310;28;20457;-73
2022/06/25 02:15:26;;;;;;;13.73;13.13;;;15.90;99.90;;;;;;4992533;28;20458;-73
2022/06/25 02:17:53;;;;;;;13.17;12.57;;;15.90;99.90;;;;;;4992499;28;20450;-73
2022/06/25 02:20:21;;;;;;;13.07;12.37;;;15.90;99.90;;;;;;4992153;28;20465;-72
2022/06/25 02:22:48;;;;;;;13.80;13.20;;;15.90;99.90;;;;;;4992305;28;20542;-74
2022/06/25 02:25:14;;;;;;;13.03;12.53;;;15.90;99.90;;;;;;4992036;28;20625;-73
2022/06/25 02:27:41;;;;;;;12.13;11.63;;;15.80;99.90;;;;;;4991881;28;20842;-73
2022/06/25 02:30:10;;;;;;;13.17;12.17;;;15.90;99.90;;;;;;4992061;28;20497;-75
2022/06/25 02:32:37;;;;;;;12.50;11.90;;;15.90;99.90;;;;;;4991979;28;20541;-73
2022/06/25 02:35:04;;;;;;;13.20;12.50;;;16.00;99.90;;;;;;4991927;28;20563;-73
2022/06/25 02:37:31;;;;;;;13.57;12.97;;;15.90;99.90;;;;;;4991572;28;20454;-73
2022/06/25 02:39:58;;;;;;;14.10;13.50;;;15.90;99.90;;;;;;4991780;28;20451;-73
2022/06/25 02:42:24;;;;;;;13.70;13.10;;;15.90;99.90;;;;;;4992095;28;20457;-74
2022/06/25 02:44:51;;;;;;;12.30;11.70;;;15.90;99.90;;;;;;4991900;28;20458;-73
2022/06/25 02:47:19;;;;;;;12.97;12.27;;;15.80;99.90;;;;;;4991419;28;20489;-73
2022/06/25 02:49:45;;;;;;;13.87;13.37;;;15.80;99.90;;;;;;4991489;28;20996;-74
2022/06/25 02:52:12;;;;;;;12.30;11.70;;;15.80;99.90;;;;;;4991557;28;20941;-74
2022/06/25 02:54:39;;;;;;;11.67;10.93;;;15.80;99.90;;;;;;4991768;28;20825;-73
2022/06/25 02:59:50;;;;;;;13.43;12.83;;;15.80;99.90;;;;;;4991781;28;20445;-73
2022/06/25 03:02:17;;;;;;;13.60;12.90;;;15.90;99.90;;;;;;4991216;28;20473;-74
2022/06/25 03:04:45;;;;;;;13.20;12.60;;;15.90;99.90;;;;;;4991230;28;20489;-73
2022/06/25 03:07:12;;;;;;;15.17;14.13;;;15.90;99.90;;;;;;4991470;28;20487;-74
2022/06/25 03:09:39;;;;;;;13.63;13.13;;;15.90;99.90;;;;;;4991661;28;20477;-73
2022/06/25 03:12:06;;;;;;;13.60;12.10;;;15.90;99.90;;;;;;4991485;28;20454;-74
2022/06/25 03:14:33;;;;;;;12.03;11.53;;;15.90;99.90;;;;;;4991104;28;20458;-74
2022/06/25 03:16:59;;;;;;;13.73;13.03;;;15.80;99.90;;;;;;4991195;28;21075;-74
2022/06/25 03:19:26;;;;;;;13.60;13.00;;;15.80;99.90;;;;;;4991164;28;20454;-75
2022/06/25 03:21:54;;;;;;;15.40;14.67;;;15.80;99.90;;;;;;4991531;28;20450;-74
2022/06/25 03:24:21;;;;;;;13.77;13.20;;;15.80;99.90;;;;;;4991153;28;20447;-74
2022/06/25 03:26:48;;;;;;;15.20;14.53;;;15.80;99.90;;;;;;4990887;28;20483;-74
2022/06/25 03:29:14;;;;;;;15.13;14.43;;;15.90;99.90;;;;;;4990712;28;20497;-74
2022/06/25 03:31:41;;;;;;;13.33;12.50;;;15.80;99.90;;;;;;4991095;28;20450;-74
2022/06/25 03:34:08;;;;;;;13.83;13.20;;;15.90;99.90;;;;;;4991136;28;20451;-74
2022/06/25 03:36:35;;;;;;;14.40;13.70;;;15.90;99.90;;;;;;4991156;28;20463;-74
2022/06/25 03:39:03;;;;;;;13.30;12.80;;;15.90;99.90;;;;;;4990909;28;20490;-74
2022/06/25 03:41:35;;;;;;;14.50;13.70;;;15.90;99.90;;;;;;4990797;28;20459;-74
2022/06/25 03:44:03;;;;;;;13.83;13.33;;;15.90;99.90;;;;;;4991012;28;20545;-75
2022/06/25 03:46:29;;;;;;;15.53;14.83;;;15.90;99.90;;;;;;4990646;28;20455;-74
2022/06/25 03:48:56;;;;;;;14.30;13.53;;;15.90;99.90;;;;;;4990930;28;20525;-74
2022/06/25 03:51:23;;;;;;;12.13;11.63;;;15.90;99.90;;;;;;4991107;28;20508;-72
2022/06/25 03:53:49;;;;;;;13.47;12.80;;;15.90;99.90;;;;;;4990948;28;20443;-73
2022/06/25 03:56:17;;;;;;;13.53;13.03;;;16.00;99.90;;;;;;4990442;28;20447;-73
2022/06/25 03:58:44;;;;;;;13.40;12.90;;;16.00;99.90;;;;;;4990663;28;20457;-75
2022/06/25 04:01:12;;;;;;;14.20;13.60;;;16.10;99.90;;;;;;4990840;28;20792;-75
2022/06/25 04:03:39;;;;;;;14.77;13.97;;;16.10;99.90;;;;;;4990667;28;20994;-75
2022/06/25 04:06:05;;;;;;;13.90;13.10;;;16.10;99.90;;;;;;4990648;28;20451;-73
2022/06/25 04:08:32;;;;;;;14.80;14.20;;;16.10;99.90;;;;;;4993706;28;20846;-74
2022/06/25 04:10:59;;;;;;;13.87;13.17;;;16.10;99.90;;;;;;4994725;28;20812;-74
2022/06/25 04:13:27;;;;;;;13.20;12.63;;;16.10;99.90;;;;;;4994725;28;20816;-74
2022/06/25 04:15:54;;;;;;;13.13;12.50;;;16.20;99.90;;;;;;4994620;28;20968;-75
2022/06/25 04:18:21;;;;;;;13.13;12.63;;;16.20;99.90;;;;;;4994806;28;20807;-75
2022/06/25 04:20:47;;;;;;;13.40;12.90;;;16.20;99.90;;;;;;4994594;28;20482;-75
2022/06/25 04:23:14;;;;;;;13.40;12.60;;;16.30;99.90;;;;;;4994646;28;20458;-75
2022/06/25 04:25:41;;;;;;;12.87;12.37;;;16.50;99.90;;;;;;4994156;28;20457;-75
2022/06/25 04:30:53;;;;;;;12.17;11.23;;;17.50;99.90;;;;;;4955909;29;20580;-75
2022/06/25 04:33:20;;;;;;;11.87;11.47;;;17.90;99.90;;;;;;4955199;29;20460;-76
2022/06/25 04:35:47;;;;;;;12.70;12.00;;;18.20;99.90;;;;;;4955260;29;20459;-76
2022/06/25 04:38:13;;;;;;;13.23;12.73;;;18.50;99.90;;;;;;4955406;29;20452;-76
2022/06/25 04:40:40;;;;;;;11.97;11.33;;;18.60;99.90;;;;;;4955670;29;20455;-76
2022/06/25 04:43:07;;;;;;;11.50;11.10;;;18.70;99.90;;;;;;4955373;29;20456;-75
2022/06/25 04:45:33;;;;;;;12.23;11.73;;;18.80;99.90;;;;;;4955249;29;20452;-74
2022/06/25 04:48:02;;;;;;;11.50;11.10;;;18.80;99.90;;;;;;4954856;29;20704;-76
2022/06/25 04:50:29;;;;;;;12.40;12.00;;;18.90;99.90;;;;;;4955092;29;20463;-75
2022/06/25 04:52:56;;;;;;;11.87;11.10;;;18.90;99.90;;;;;;4955179;29;20464;-75
2022/06/25 04:55:23;;;;;;;11.83;11.40;;;19.00;99.90;;;;;;4955207;29;20464;-77
2022/06/25 04:57:49;;;;;;;12.10;11.70;;;19.00;99.90;;;;;;4954835;29;20807;-75
2022/06/25 05:00:16;;;;;;;12.10;11.60;;;19.10;99.90;;;;;;4954784;29;20464;-73
2022/06/25 05:02:43;;;;;;;12.27;11.80;;;19.30;99.90;;;;;;4950022;29;20497;-73
2022/06/25 05:05:11;;;;;;;12.33;11.83;;;19.40;99.90;;;;;;4953759;29;20829;-73
2022/06/25 05:07:38;;;;;;;11.80;11.40;;;19.50;99.90;;;;;;4954397;29;20481;-74
2022/06/25 05:10:05;;;;;;;14.60;13.90;;;19.60;99.90;;;;;;4954171;29;20459;-74
2022/06/25 05:15:16;;;;;;;11.90;11.50;;;20.00;99.90;;;;;;4954235;29;20612;-74
2022/06/25 05:17:43;;;;;;;12.63;12.13;;;20.20;99.90;;;;;;4953935;29;20449;-75
2022/06/25 05:20:12;;;;;;;12.40;11.90;;;20.10;99.90;;;;;;4953297;28;20463;-74
2022/06/25 05:22:39;;;;;;;11.60;11.10;;;20.30;99.90;;;;;;4954099;29;20947;-76
2022/06/25 05:25:07;;;;;;;11.70;11.30;;;20.30;99.90;;;;;;4954047;29;20479;-75
2022/06/25 05:27:33;;;;;;;12.30;11.90;;;20.60;99.90;;;;;;4953589;28;20501;-75
2022/06/25 05:30:00;;;;;;;12.73;12.23;;;20.50;99.90;;;;;;4984705;28;20483;-75
2022/06/25 05:32:27;;;;;;;11.97;11.57;;;20.60;99.90;;;;;;4992520;28;20481;-74
2022/06/25 05:34:54;;;;;;;12.30;11.70;;;20.70;99.90;;;;;;4992721;28;20476;-74
2022/06/25 05:37:22;;;;;;;12.27;11.87;;;20.90;99.90;;;;;;4992690;28;20470;-75
2022/06/25 05:39:49;;;;;;;12.80;12.10;;;21.00;99.90;;;;;;4992497;28;20454;-75
2022/06/25 05:42:16;;;;;;;12.20;11.60;;;20.90;99.90;;;;;;4992618;28;20459;-74
2022/06/25 05:44:43;;;;;;;13.03;12.40;;;20.80;99.90;;;;;;4992455;28;20975;-75
2022/06/25 05:47:09;;;;;;;12.83;12.30;;;20.90;99.90;;;;;;4992588;28;20455;-75
2022/06/25 05:49:36;;;;;;;12.40;12.00;;;21.00;99.90;;;;;;4992577;28;20453;-75
2022/06/25 05:52:03;;;;;;;11.97;11.47;;;21.00;99.90;;;;;;4992085;28;20463;-75
2022/06/25 05:54:31;;;;;;;11.70;11.30;;;21.10;99.90;;;;;;4992222;28;20450;-75
2022/06/25 05:56:58;;;;;;;13.17;12.47;;;21.10;99.90;;;;;;4992304;28;20443;-75
2022/06/25 05:59:24;;;;;;;14.17;12.73;;;21.40;99.90;;;;;;4992308;28;20949;-75
2022/06/25 06:01:51;;;;;;;12.40;11.90;;;21.50;99.90;;;;;;4992309;28;20957;-75
2022/06/25 06:04:18;;;;;;;12.13;11.70;;;21.70;99.90;;;;;;4992180;28;20454;-74
2022/06/25 06:06:44;;;;;;;11.10;10.70;;;21.90;99.90;;;;;;4991958;28;20601;-74
2022/06/25 06:09:11;;;;;;;12.47;11.83;;;22.00;99.90;;;;;;4991963;28;21034;-74
2022/06/25 06:11:39;;;;;;;12.97;12.37;;;22.30;99.90;;;;;;4992204;28;20446;-73
2022/06/25 06:14:06;;;;;;;12.03;11.63;;;22.30;99.90;;;;;;4992032;28;20451;-75
2022/06/25 06:16:33;;;;;;;13.00;12.20;;;22.30;99.90;;;;;;4991921;28;20470;-74
2022/06/25 06:18:59;;;;;;;12.20;11.70;;;22.50;99.90;;;;;;4991782;28;20584;-74
2022/06/25 06:21:26;;;;;;;12.70;12.10;;;22.50;99.90;;;;;;4991733;28;20451;-75
2022/06/25 06:23:53;;;;;;;12.83;12.33;;;22.30;99.90;;;;;;4992079;28;20461;-74
2022/06/25 06:26:19;;;;;;;12.20;11.73;;;22.30;99.90;;;;;;4991830;28;20458;-75
2022/06/25 06:28:47;;;;;;;12.43;11.93;;;22.60;99.90;;;;;;4991262;28;20494;-74
2022/06/25 06:31:14;;;;;;;11.43;10.93;;;22.90;99.90;;;;;;4990506;28;20457;-74
2022/06/25 06:33:41;;;;;;;11.80;11.40;;;23.10;99.90;;;;;;4987660;28;20477;-75
2022/06/25 06:36:08;;;;;;;12.00;11.50;;;23.20;99.90;;;;;;4983549;28;20542;-75
2022/06/25 06:38:34;;;;;;;12.17;11.57;;;23.00;99.90;;;;;;4979786;28;20444;-74
2022/06/25 06:41:01;;;;;;;12.13;11.63;;;23.10;99.90;;;;;;4972689;28;20478;-74
2022/06/25 06:43:28;;;;;;;12.97;12.47;;;23.00;99.90;;;;;;4988777;28;20827;-75
2022/06/25 06:45:56;;;;;;;12.47;11.97;;;23.30;99.90;;;;;;4992065;28;20470;-77
2022/06/25 06:48:22;;;;;;;12.10;11.53;;;23.70;99.90;;;;;;4991860;28;20487;-74
2022/06/25 06:50:49;;;;;;;11.43;10.87;;;23.90;99.90;;;;;;4977089;28;20479;-76
2022/06/25 06:53:16;;;;;;;10.93;10.53;;;24.00;99.90;;;;;;4972219;28;20474;-76
2022/06/25 06:55:42;;;;;;;11.40;10.90;;;23.90;99.90;;;;;;4972249;28;20452;-76
2022/06/25 06:58:18;;;;;;;12.10;11.40;;;24.00;99.90;;;;;;4972004;28;20452;-76
2022/06/25 07:00:45;;;;;;;11.67;11.27;;;24.10;99.90;;;;;;4969832;28;20461;-76
2022/06/25 07:03:13;;;;;;;11.27;10.87;;;24.30;99.90;;;;;;4971359;28;20463;-75
2022/06/25 07:05:40;;;;;;;12.20;11.40;;;24.50;99.90;;;;;;4971771;28;20463;-76
2022/06/25 07:08:07;;;;;;;11.77;11.07;;;24.60;99.90;;;;;;4971398;28;20492;-75
2022/06/25 07:10:33;;;;;;;11.97;11.47;;;24.90;99.90;;;;;;4971354;28;20444;-75
2022/06/25 07:13:00;;;;;;;12.00;11.40;;;25.10;99.90;;;;;;4971192;28;20973;-75
2022/06/25 07:15:27;;;;;;;12.20;11.70;;;24.80;99.90;;;;;;4971562;28;20451;-74
2022/06/25 07:17:53;;;;;;;11.90;11.50;;;25.40;99.90;;;;;;4971758;28;20475;-75
2022/06/25 07:20:21;;;;;;;11.37;10.87;;;25.70;99.90;;;;;;4971388;28;20459;-75
2022/06/25 07:22:48;;;;;;;13.20;12.57;;;25.90;99.90;;;;;;4971367;28;20456;-76
2022/06/25 07:25:15;;;;;;;12.47;11.77;;;26.10;99.90;;;;;;4971335;28;20825;-75
2022/06/25 07:27:43;;;;;;;11.53;11.03;;;26.80;99.20;;;;;;4971405;28;20475;-75
2022/06/25 07:30:11;;;;;;;12.80;12.20;;;26.60;99.50;;;;;;4971303;28;20488;-74
2022/06/25 07:32:38;;;;;;;12.77;12.10;;;27.00;98.00;;;;;;4971601;28;20462;-76
2022/06/25 07:35:06;;;;;;;12.93;12.53;;;26.80;98.20;;;;;;4971280;28;20455;-76
2022/06/25 07:37:34;;;;;;;12.57;12.10;;;27.00;97.50;;;;;;4971274;28;20459;-76
2022/06/25 07:40:01;;;;;;;12.10;11.60;;;27.10;97.40;;;;;;4971118;28;20464;-77
2022/06/25 07:42:28;;;;;;;12.53;12.13;;;27.40;96.10;;;;;;4970668;28;20960;-74
2022/06/25 07:44:55;;;;;;;10.57;10.27;;;27.20;96.60;;;;;;4971065;28;20490;-75
2022/06/25 07:47:22;;;;;;;11.90;11.50;;;27.20;97.00;;;;;;4971201;28;20455;-74
2022/06/25 07:52:34;;;;;;;12.03;11.53;;;26.70;96.70;;;;;;4971164;28;20431;-75
2022/06/25 07:55:03;;;;;;;12.30;11.70;;;27.10;95.50;;;;;;4970965;28;21016;-75
2022/06/25 07:57:30;;;;;;;12.97;12.47;;;27.60;94.80;;;;;;4970945;28;20455;-75
2022/06/25 07:59:56;;;;;;;13.60;13.20;;;28.20;93.30;;;;;;4971067;28;20934;-75
2022/06/25 08:02:23;;;;;;;13.60;13.10;;;28.50;91.10;;;;;;4971189;28;20534;-75
2022/06/25 08:04:50;;;;;;;11.83;11.43;;;29.10;90.40;;;;;;4970886;28;20535;-75
2022/06/25 08:07:17;;;;;;;12.63;11.97;;;29.80;87.30;;;;;;4970775;28;20451;-76
2022/06/25 08:09:45;;;;;;;12.50;12.03;;;29.90;85.70;;;;;;4970922;28;20495;-75
2022/06/25 08:12:12;;;;;;;12.23;11.73;;;30.20;84.50;;;;;;4970857;28;20825;-76
2022/06/25 08:14:38;;;;;;;13.60;13.10;;;30.50;82.60;;;;;;4971105;28;20459;-75
2022/06/25 08:17:05;;;;;;;13.43;12.90;;;30.50;82.70;;;;;;4970833;28;20447;-75
2022/06/25 08:19:32;;;;;;;14.93;14.33;;;31.00;80.60;;;;;;4970877;28;20843;-75
2022/06/25 08:21:58;;;;;;;13.87;13.27;;;31.90;77.80;;;;;;4970871;28;20957;-76
2022/06/25 08:24:25;;;;;;;11.87;11.47;;;33.20;73.90;;;;;;4971073;28;20452;-76
2022/06/25 08:26:53;;;;;;;13.43;12.97;;;32.00;80.20;;;;;;4971002;28;20792;-75
2022/06/25 08:29:19;;;;;;;12.03;11.63;;;31.70;74.30;;;;;;4970572;28;20494;-76
2022/06/25 08:31:46;;;;;;;13.50;12.90;;;31.60;76.40;;;;;;4970868;28;20466;-76
2022/06/25 08:34:13;;;;;;;14.00;13.40;;;32.10;74.90;;;;;;4970945;28;20451;-76
2022/06/25 08:36:40;;;;;;;13.20;12.70;;;32.20;72.80;;;;;;4971225;28;20811;-77
2022/06/25 08:39:06;;;;;;;14.10;13.50;;;31.90;74.10;;;;;;4970861;28;20452;-76
2022/06/25 08:41:33;;;;;;;13.33;12.83;;;32.50;72.30;;;;;;4970759;28;20448;-75
2022/06/25 08:44:01;;;;;;;12.40;11.97;;;32.80;72.30;;;;;;4970662;28;20448;-76
2022/06/25 08:46:29;;;;;;;13.20;12.80;;;32.90;71.40;;;;;;4970703;28;20459;-76
2022/06/25 08:48:56;;;;;;;13.60;13.00;;;33.60;70.70;;;;;;4970613;28;20491;-75
2022/06/25 08:51:26;;;;;;;13.97;13.47;;;32.80;70.90;;;;;;4970933;28;20462;-78
2022/06/25 08:53:55;;;;;;;13.00;12.23;;;32.60;71.00;;;;;;4971183;28;20467;-75
2022/06/25 08:56:22;;;;;;;13.37;12.87;;;32.60;71.20;;;;;;4974261;28;20973;-75
2022/06/25 08:58:49;;;;;;;12.90;12.40;;;32.40;70.40;;;;;;4974128;28;20451;-75
2022/06/25 09:01:17;;;;;;;12.90;12.23;;;32.70;70.00;;;;;;4974009;28;20460;-75
2022/06/25 09:03:44;;;;;;;13.03;12.53;;;32.50;67.90;;;;;;4973639;28;20455;-75
2022/06/25 09:06:13;;;;;;;13.10;12.50;;;32.70;69.40;;;;;;4974047;28;20814;-75
2022/06/25 09:08:41;;;;;;;12.73;12.23;;;32.70;65.10;;;;;;4973986;28;20483;-76
2022/06/25 09:11:08;;;;;;;13.87;13.37;;;32.50;67.30;;;;;;4974195;28;20459;-75
2022/06/25 09:13:34;;;;;;;13.37;12.80;;;33.10;66.00;;;;;;4973663;28;20455;-75
2022/06/25 09:16:01;;;;;;;13.77;13.27;;;33.80;62.60;;;;;;4973684;28;20459;-75
2022/06/25 09:18:34;;;;;;;14.87;13.77;;;34.30;60.20;;;;;;4973720;28;20448;-75
2022/06/25 09:21:02;;;;;;;14.30;13.50;;;35.00;58.90;;;;;;4973645;28;20475;-75
2022/06/25 09:23:30;;;;;;;14.23;13.63;;;34.00;58.40;;;;;;4973383;28;20466;-75
2022/06/25 09:26:02;;;;;;;13.50;13.00;;;33.90;58.40;;;;;;4973468;28;20456;-74
2022/06/25 09:28:30;;;;;;;13.40;12.90;;;32.90;60.70;;;;;;4973080;28;20498;-75
2022/06/25 09:30:57;;;;;;;13.80;13.20;;;32.90;64.30;;;;;;4973433;28;20455;-76
2022/06/25 09:33:23;;;;;;;13.40;12.90;;;32.50;64.10;;;;;;4973639;28;20804;-75
2022/06/25 09:35:54;;;;;;;13.80;13.33;;;33.00;62.40;;;;;;4973219;28;20447;-76
2022/06/25 09:38:21;;;;;;;13.80;13.30;;;33.80;58.10;;;;;;4973324;28;20462;-74
2022/06/25 09:40:49;;;;;;;13.23;12.73;;;33.00;62.40;;;;;;4973245;28;20517;-76
2022/06/25 09:43:17;;;;;;;13.40;12.90;;;33.00;61.60;;;;;;4973106;28;20479;-75
2022/06/25 09:45:45;;;;;;;13.40;13.00;;;31.90;64.30;;;;;;4973113;28;20471;-73
2022/06/25 09:48:19;;;;;;;13.33;12.83;;;31.10;66.80;;;;;;4972986;28;20451;-76
2022/06/25 09:50:46;;;;;;;12.93;12.53;;;30.70;68.30;;;;;;4973299;28;20858;-76
2022/06/25 09:53:14;;;;;;;13.10;12.50;;;31.70;66.20;;;;;;4972888;28;20455;-74
2022/06/25 09:55:40;;;;;;;13.80;13.30;;;32.20;65.20;;;;;;4973021;28;20447;-74
2022/06/25 09:58:07;;;;;;;13.50;13.00;;;31.70;65.10;;;;;;4973127;28;20486;-73
2022/06/25 10:00:34;;;;;;;13.10;12.10;;;30.70;67.60;;;;;;4972812;28;20451;-74
2022/06/25 10:03:03;;;;;;;13.13;12.63;;;31.20;67.40;;;;;;4972624;28;20483;-76
2022/06/25 10:05:38;;;;;;;13.57;12.93;;;31.00;68.60;;;;;;4972678;28;20448;-74
2022/06/25 10:08:09;;;;;;;12.43;11.93;;;30.80;70.50;;;;;;4973186;28;20459;-75
2022/06/25 10:10:41;;;;;;;12.50;11.93;;;30.50;70.10;;;;;;4973105;28;20491;-74
2022/06/25 10:13:08;;;;;;;13.17;12.57;;;30.50;70.00;;;;;;4972875;28;20997;-74
2022/06/25 10:15:36;;;;;;;12.57;12.07;;;30.70;70.40;;;;;;4972555;28;20462;-75
2022/06/25 10:18:04;;;;;;;12.47;11.97;;;30.80;67.20;;;;;;4972443;28;20464;-74
2022/06/25 10:20:32;;;;;;;13.10;12.50;;;31.90;65.80;;;;;;4972590;28;20721;-76
2022/06/25 10:23:01;;;;;;;12.93;12.43;;;32.30;64.20;;;;;;4972402;28;21021;-76
2022/06/25 10:25:29;;;;;;;12.60;12.20;;;32.80;63.10;;;;;;4972482;28;20463;-77
2022/06/25 10:28:07;;;;;;;12.33;11.93;;;33.50;61.40;;;;;;4972420;28;20567;-77
2022/06/25 10:30:49;;;;;;;12.87;12.47;;;33.20;61.90;;;;;;4933991;29;20496;-76
2022/06/25 10:33:17;;;;;;;12.00;11.50;;;31.90;64.60;;;;;;4933635;29;20453;-76
2022/06/25 10:35:45;;;;;;;12.47;12.00;;;32.00;63.80;;;;;;4933595;29;20462;-77
2022/06/25 10:38:13;;;;;;;12.90;12.37;;;32.70;62.80;;;;;;4933519;29;20490;-77
2022/06/25 10:40:48;;;;;;;12.40;12.00;;;31.90;62.80;;;;;;4933595;29;20453;-76
2022/06/25 10:43:35;;;;;;;12.93;12.43;;;31.40;66.00;;;;;;4933665;29;20812;-77
2022/06/25 10:46:20;;;;;;;13.40;12.97;;;32.40;62.60;;;;;;4933541;29;20841;-75
2022/06/25 10:48:51;;;;;;;13.13;12.50;;;32.90;61.30;;;;;;4933160;29;20454;-75
2022/06/25 10:51:29;;;;;;;13.00;12.57;;;34.00;60.00;;;;;;4933376;29;20831;-76
2022/06/25 10:53:55;;;;;;;13.20;12.60;;;35.00;58.50;;;;;;4933413;29;20496;-76
2022/06/25 10:56:22;;;;;;;13.30;12.80;;;36.00;56.10;;;;;;4933759;29;20465;-75
2022/06/25 10:58:51;;;;;;;13.30;12.80;;;36.20;55.00;;;;;;4933379;29;20464;-75
2022/06/25 11:01:28;;;;;;;13.80;13.40;;;36.00;55.00;;;;;;4933363;29;20472;-75
2022/06/25 11:03:56;;;;;;;13.50;12.70;;;34.90;53.30;;;;;;4933333;29;20489;-76
2022/06/25 11:06:24;;;;;;;13.60;13.20;;;33.80;57.20;;;;;;4933521;29;20454;-75
2022/06/25 11:08:52;;;;;;;13.77;13.23;;;34.30;57.60;;;;;;4933250;29;20461;-78
2022/06/25 11:11:27;;;;;;;13.50;13.00;;;34.60;57.10;;;;;;4933167;29;20458;-78
2022/06/25 11:13:55;;;;;;;13.37;12.83;;;35.20;56.00;;;;;;4933615;29;20445;-76
2022/06/25 11:16:23;;;;;;;14.37;13.47;;;35.40;55.70;;;;;;4933007;29;20469;-76
2022/06/25 11:18:53;;;;;;;13.50;13.00;;;35.50;52.10;;;;;;4932809;29;20521;-77
2022/06/25 11:21:31;;;;;;;14.37;13.77;;;35.20;52.30;;;;;;4933009;29;20854;-77
2022/06/25 11:24:09;;;;;;;13.20;12.70;;;36.00;51.80;;;;;;4933057;29;20460;-77
2022/06/25 11:29:24;;;;;;;13.40;12.90;;;34.30;53.40;;;;;;4953229;28;20618;-77
2022/06/25 11:31:52;;;;;;;13.43;12.63;;;35.20;51.60;;;;;;4971566;28;20455;-77
2022/06/25 11:34:20;;;;;;;13.47;12.87;;;35.80;52.10;;;;;;4971209;28;20859;-77
2022/06/25 11:36:56;;;;;;;13.30;12.80;;;36.50;48.70;;;;;;4971186;28;20946;-77
2022/06/25 11:39:22;;;;;;;13.97;13.33;;;35.80;50.70;;;;;;4971421;28;20486;-76
2022/06/25 11:41:51;;;;;;;14.17;13.57;;;36.10;50.00;;;;;;4971122;28;20458;-76
2022/06/25 11:44:19;;;;;;;14.27;13.67;;;35.30;51.50;;;;;;4971342;28;20463;-76
2022/06/25 11:46:48;;;;;;;13.33;12.83;;;34.30;52.30;;;;;;4971102;28;20938;-76
2022/06/25 11:49:16;;;;;;;13.60;13.10;;;33.10;55.20;;;;;;4970924;28;20483;-76
2022/06/25 11:51:47;;;;;;;12.30;11.90;;;33.50;54.50;;;;;;4970942;28;20554;-77
2022/06/25 11:54:14;;;;;;;13.00;12.50;;;33.80;53.40;;;;;;4970972;28;20958;-76
2022/06/25 11:56:48;;;;;;;13.30;12.80;;;33.20;53.60;;;;;;4971190;28;20459;-76
2022/06/25 11:59:22;;;;;;;12.60;12.10;;;33.40;53.50;;;;;;4970911;28;20459;-75
2022/06/25 12:01:50;;;;;;;13.23;12.73;;;33.10;51.60;;;;;;4970841;28;20460;-76
2022/06/25 12:04:17;;;;;;;12.90;12.30;;;32.80;52.50;;;;;;4971054;28;20502;-75
2022/06/25 12:06:45;;;;;;;13.30;12.63;;;32.60;54.30;;;;;;4970941;28;20993;-77
2022/06/25 12:09:13;;;;;;;13.63;13.13;;;32.50;54.40;;;;;;4970840;28;20462;-76
2022/06/25 12:11:40;;;;;;;12.80;12.20;;;33.30;52.90;;;;;;4971073;28;20451;-76
2022/06/25 12:14:07;;;;;;;12.70;12.20;;;32.40;53.30;;;;;;4971301;28;20455;-76
2022/06/25 12:16:44;;;;;;;14.27;13.77;;;32.20;53.00;;;;;;4970899;28;20470;-76
2022/06/25 12:19:12;;;;;;;12.07;11.67;;;33.70;52.10;;;;;;4970668;28;20881;-80
2022/06/25 12:21:39;;;;;;;12.70;12.20;;;34.90;51.10;;;;;;4971112;28;20462;-75
2022/06/25 12:24:07;;;;;;;13.30;12.80;;;35.50;48.60;;;;;;4971058;28;20455;-72
2022/06/25 12:26:35;;;;;;;12.90;12.40;;;35.90;47.90;;;;;;4971064;28;20460;-72
2022/06/25 12:29:13;;;;;;;12.43;12.03;;;36.10;47.60;;;;;;4973054;28;21231;-72
2022/06/25 12:31:41;;;;;;;12.70;12.30;;;36.60;47.00;;;;;;4974987;28;20447;-73
2022/06/25 12:34:08;;;;;;;13.90;13.40;;;36.40;47.00;;;;;;4975164;28;20459;-73
2022/06/25 12:36:38;;;;;;;13.93;13.33;;;36.10;47.10;;;;;;4973235;28;20478;-73
2022/06/25 12:39:27;;;;;;;13.57;13.13;;;36.20;47.10;;;;;;4974913;28;20461;-72
2022/06/25 12:41:55;;;;;;;13.57;13.07;;;35.40;48.60;;;;;;4973561;28;20447;-72
2022/06/25 12:44:21;;;;;;;13.37;12.97;;;34.50;49.60;;;;;;4975148;28;20780;-73
2022/06/25 12:47:02;;;;;;;13.97;13.47;;;34.10;50.00;;;;;;4974865;28;20451;-74
2022/06/25 12:49:42;;;;;;;13.93;13.30;;;34.20;49.80;;;;;;4974701;28;20455;-71
2022/06/25 12:52:10;;;;;;;14.60;14.00;;;35.10;48.30;;;;;;4975001;28;21244;-73